sensor_id;sensor_type;location;lat;lon;timestamp;P1;durP1;ratioP1;P2;durP2;ratioP2
74510;SDS011;62991;50.040;18.400;2024-03-25T00:00:58;5.63;;;2.17;;
74510;SDS011;62991;50.040;18.400;2024-03-25T00:03:59;2.50;;;1.25;;
74510;SDS011;62991;50.040;18.400;2024-03-25T00:06:59;2.65;;;1.50;;
74510;SDS011;62991;50.040;18.400;2024-03-25T00:10:00;2.83;;;1.60;;
74510;SDS011;62991;50.040;18.400;2024-03-25T00:13:01;10.27;;;2.40;;
74510;SDS011;62991;50.040;18.400;2024-03-25T00:16:02;4.90;;;2.10;;
74510;SDS011;62991;50.040;18.400;2024-03-25T00:19:04;10.68;;;2.75;;
74510;SDS011;62991;50.040;18.400;2024-03-25T00:22:05;3.60;;;1.98;;
74510;SDS011;62991;50.040;18.400;2024-03-25T00:25:06;4.00;;;2.00;;
74510;SDS011;62991;50.040;18.400;2024-03-25T00:28:07;3.45;;;1.83;;
74510;SDS011;62991;50.040;18.400;2024-03-25T00:31:08;4.43;;;1.80;;
74510;SDS011;62991;50.040;18.400;2024-03-25T00:34:08;4.72;;;2.17;;
74510;SDS011;62991;50.040;18.400;2024-03-25T00:37:09;2.65;;;1.40;;
74510;SDS011;62991;50.040;18.400;2024-03-25T00:40:10;2.75;;;1.17;;
74510;SDS011;62991;50.040;18.400;2024-03-25T00:43:11;4.80;;;1.90;;
74510;SDS011;62991;50.040;18.400;2024-03-25T00:46:12;3.42;;;1.38;;
74510;SDS011;62991;50.040;18.400;2024-03-25T00:49:13;2.13;;;1.00;;
74510;SDS011;62991;50.040;18.400;2024-03-25T00:52:14;0.70;;;0.63;;
74510;SDS011;62991;50.040;18.400;2024-03-25T00:55:14;2.17;;;1.35;;
74510;SDS011;62991;50.040;18.400;2024-03-25T00:58:15;3.03;;;1.33;;
74510;SDS011;62991;50.040;18.400;2024-03-25T01:01:16;4.22;;;2.13;;
74510;SDS011;62991;50.040;18.400;2024-03-25T01:04:16;3.83;;;1.83;;
74510;SDS011;62991;50.040;18.400;2024-03-25T01:07:17;2.25;;;1.42;;
74510;SDS011;62991;50.040;18.400;2024-03-25T01:10:18;3.70;;;1.80;;
74510;SDS011;62991;50.040;18.400;2024-03-25T01:13:19;4.50;;;1.50;;
74510;SDS011;62991;50.040;18.400;2024-03-25T01:16:20;3.22;;;1.80;;
74510;SDS011;62991;50.040;18.400;2024-03-25T01:19:20;3.33;;;1.80;;
74510;SDS011;62991;50.040;18.400;2024-03-25T01:22:21;2.67;;;1.35;;
74510;SDS011;62991;50.040;18.400;2024-03-25T01:25:22;6.45;;;1.50;;
74510;SDS011;62991;50.040;18.400;2024-03-25T01:28:22;3.80;;;2.08;;
74510;SDS011;62991;50.040;18.400;2024-03-25T01:31:23;3.83;;;1.10;;
74510;SDS011;62991;50.040;18.400;2024-03-25T01:34:24;4.68;;;1.38;;
74510;SDS011;62991;50.040;18.400;2024-03-25T01:37:25;4.18;;;1.55;;
74510;SDS011;62991;50.040;18.400;2024-03-25T01:40:26;3.83;;;1.95;;
74510;SDS011;62991;50.040;18.400;2024-03-25T01:43:27;5.43;;;2.15;;
74510;SDS011;62991;50.040;18.400;2024-03-25T01:46:27;2.83;;;1.70;;
74510;SDS011;62991;50.040;18.400;2024-03-25T01:49:29;4.13;;;0.80;;
74510;SDS011;62991;50.040;18.400;2024-03-25T01:52:30;3.47;;;1.70;;
74510;SDS011;62991;50.040;18.400;2024-03-25T01:55:32;2.97;;;1.95;;
74510;SDS011;62991;50.040;18.400;2024-03-25T01:58:34;2.95;;;1.65;;
74510;SDS011;62991;50.040;18.400;2024-03-25T02:01:36;3.15;;;1.65;;
74510;SDS011;62991;50.040;18.400;2024-03-25T02:04:37;3.10;;;1.83;;
74510;SDS011;62991;50.040;18.400;2024-03-25T02:07:43;5.05;;;1.70;;
74510;SDS011;62991;50.040;18.400;2024-03-25T02:10:44;4.10;;;2.00;;
74510;SDS011;62991;50.040;18.400;2024-03-25T02:13:45;3.92;;;2.05;;
74510;SDS011;62991;50.040;18.400;2024-03-25T02:16:46;3.15;;;2.08;;
74510;SDS011;62991;50.040;18.400;2024-03-25T02:19:46;3.35;;;1.45;;
74510;SDS011;62991;50.040;18.400;2024-03-25T02:22:47;1.92;;;1.20;;
74510;SDS011;62991;50.040;18.400;2024-03-25T02:25:50;1.38;;;0.70;;
74510;SDS011;62991;50.040;18.400;2024-03-25T02:28:51;3.42;;;1.83;;
74510;SDS011;62991;50.040;18.400;2024-03-25T02:31:52;2.63;;;1.23;;
74510;SDS011;62991;50.040;18.400;2024-03-25T02:34:54;2.13;;;1.00;;
74510;SDS011;62991;50.040;18.400;2024-03-25T02:37:56;2.30;;;1.30;;
74510;SDS011;62991;50.040;18.400;2024-03-25T02:40:57;2.42;;;1.45;;
74510;SDS011;62991;50.040;18.400;2024-03-25T02:43:58;2.75;;;1.83;;
74510;SDS011;62991;50.040;18.400;2024-03-25T02:46:59;5.25;;;1.88;;
74510;SDS011;62991;50.040;18.400;2024-03-25T02:50:00;1.17;;;0.77;;
74510;SDS011;62991;50.040;18.400;2024-03-25T02:53:00;2.70;;;1.52;;
74510;SDS011;62991;50.040;18.400;2024-03-25T02:56:01;1.90;;;0.77;;
74510;SDS011;62991;50.040;18.400;2024-03-25T02:59:02;3.67;;;1.17;;
74510;SDS011;62991;50.040;18.400;2024-03-25T03:02:03;2.92;;;1.52;;
74510;SDS011;62991;50.040;18.400;2024-03-25T03:05:04;3.47;;;1.63;;
74510;SDS011;62991;50.040;18.400;2024-03-25T03:08:05;1.55;;;0.95;;
74510;SDS011;62991;50.040;18.400;2024-03-25T03:11:05;5.60;;;1.92;;
74510;SDS011;62991;50.040;18.400;2024-03-25T03:14:06;1.05;;;0.65;;
74510;SDS011;62991;50.040;18.400;2024-03-25T03:17:07;3.03;;;1.23;;
74510;SDS011;62991;50.040;18.400;2024-03-25T03:20:08;2.00;;;1.08;;
74510;SDS011;62991;50.040;18.400;2024-03-25T03:23:09;3.67;;;2.38;;
74510;SDS011;62991;50.040;18.400;2024-03-25T03:26:10;2.30;;;1.40;;
74510;SDS011;62991;50.040;18.400;2024-03-25T03:29:11;1.20;;;0.88;;
74510;SDS011;62991;50.040;18.400;2024-03-25T03:32:11;3.42;;;1.77;;
74510;SDS011;62991;50.040;18.400;2024-03-25T03:35:12;3.42;;;1.80;;
74510;SDS011;62991;50.040;18.400;2024-03-25T03:38:13;3.38;;;1.88;;
74510;SDS011;62991;50.040;18.400;2024-03-25T03:41:13;0.75;;;0.65;;
74510;SDS011;62991;50.040;18.400;2024-03-25T03:44:14;2.78;;;1.50;;
74510;SDS011;62991;50.040;18.400;2024-03-25T03:47:15;3.00;;;1.95;;
74510;SDS011;62991;50.040;18.400;2024-03-25T03:50:16;4.28;;;1.95;;
74510;SDS011;62991;50.040;18.400;2024-03-25T03:53:17;3.08;;;1.63;;
74510;SDS011;62991;50.040;18.400;2024-03-25T03:56:18;6.32;;;2.15;;
74510;SDS011;62991;50.040;18.400;2024-03-25T03:59:19;3.97;;;1.50;;
74510;SDS011;62991;50.040;18.400;2024-03-25T04:02:20;2.05;;;1.00;;
74510;SDS011;62991;50.040;18.400;2024-03-25T04:05:20;5.60;;;1.75;;
74510;SDS011;62991;50.040;18.400;2024-03-25T04:08:21;2.72;;;1.60;;
74510;SDS011;62991;50.040;18.400;2024-03-25T04:11:22;6.05;;;2.17;;
74510;SDS011;62991;50.040;18.400;2024-03-25T04:14:22;3.72;;;2.08;;
74510;SDS011;62991;50.040;18.400;2024-03-25T04:17:23;2.72;;;1.90;;
74510;SDS011;62991;50.040;18.400;2024-03-25T04:20:24;4.60;;;1.65;;
74510;SDS011;62991;50.040;18.400;2024-03-25T04:23:25;5.57;;;1.45;;
74510;SDS011;62991;50.040;18.400;2024-03-25T04:26:26;7.80;;;2.08;;
74510;SDS011;62991;50.040;18.400;2024-03-25T04:29:26;5.07;;;2.20;;
74510;SDS011;62991;50.040;18.400;2024-03-25T04:32:29;4.78;;;1.42;;
74510;SDS011;62991;50.040;18.400;2024-03-25T04:35:30;4.30;;;1.83;;
74510;SDS011;62991;50.040;18.400;2024-03-25T04:38:30;4.32;;;2.22;;
74510;SDS011;62991;50.040;18.400;2024-03-25T04:41:31;4.35;;;1.95;;
74510;SDS011;62991;50.040;18.400;2024-03-25T04:44:31;6.18;;;2.08;;
74510;SDS011;62991;50.040;18.400;2024-03-25T04:47:32;5.93;;;1.90;;
74510;SDS011;62991;50.040;18.400;2024-03-25T04:50:34;4.70;;;2.25;;
74510;SDS011;62991;50.040;18.400;2024-03-25T04:53:34;2.80;;;1.27;;
74510;SDS011;62991;50.040;18.400;2024-03-25T04:56:35;5.57;;;2.10;;
74510;SDS011;62991;50.040;18.400;2024-03-25T04:59:36;2.72;;;1.70;;
74510;SDS011;62991;50.040;18.400;2024-03-25T05:02:37;4.60;;;1.85;;
74510;SDS011;62991;50.040;18.400;2024-03-25T05:05:38;2.65;;;1.70;;
74510;SDS011;62991;50.040;18.400;2024-03-25T05:08:39;2.35;;;1.20;;
74510;SDS011;62991;50.040;18.400;2024-03-25T05:11:40;4.97;;;2.25;;
74510;SDS011;62991;50.040;18.400;2024-03-25T05:14:40;7.47;;;2.22;;
74510;SDS011;62991;50.040;18.400;2024-03-25T05:17:41;6.10;;;2.20;;
74510;SDS011;62991;50.040;18.400;2024-03-25T05:20:42;4.43;;;2.15;;
74510;SDS011;62991;50.040;18.400;2024-03-25T05:23:43;7.07;;;2.22;;
74510;SDS011;62991;50.040;18.400;2024-03-25T05:26:43;4.43;;;2.40;;
74510;SDS011;62991;50.040;18.400;2024-03-25T05:29:44;4.28;;;2.00;;
74510;SDS011;62991;50.040;18.400;2024-03-25T05:32:44;7.25;;;3.25;;
74510;SDS011;62991;50.040;18.400;2024-03-25T05:35:45;3.25;;;1.40;;
74510;SDS011;62991;50.040;18.400;2024-03-25T05:38:46;5.25;;;2.35;;
74510;SDS011;62991;50.040;18.400;2024-03-25T05:41:47;6.13;;;2.47;;
74510;SDS011;62991;50.040;18.400;2024-03-25T05:44:48;2.13;;;1.63;;
74510;SDS011;62991;50.040;18.400;2024-03-25T05:47:50;3.97;;;2.13;;
74510;SDS011;62991;50.040;18.400;2024-03-25T05:51:23;2.53;;;1.15;;
74510;SDS011;62991;50.040;18.400;2024-03-25T05:57:19;3.42;;;1.90;;
74510;SDS011;62991;50.040;18.400;2024-03-25T06:00:20;3.80;;;2.08;;
74510;SDS011;62991;50.040;18.400;2024-03-25T06:03:21;5.40;;;2.25;;
74510;SDS011;62991;50.040;18.400;2024-03-25T06:06:22;5.53;;;2.70;;
74510;SDS011;62991;50.040;18.400;2024-03-25T06:09:23;9.00;;;2.55;;
74510;SDS011;62991;50.040;18.400;2024-03-25T06:12:23;5.38;;;2.53;;
74510;SDS011;62991;50.040;18.400;2024-03-25T06:15:24;6.05;;;2.17;;
74510;SDS011;62991;50.040;18.400;2024-03-25T06:18:25;4.70;;;2.08;;
74510;SDS011;62991;50.040;18.400;2024-03-25T06:21:26;6.90;;;2.83;;
74510;SDS011;62991;50.040;18.400;2024-03-25T06:24:26;3.35;;;2.00;;
74510;SDS011;62991;50.040;18.400;2024-03-25T06:27:27;2.45;;;1.15;;
74510;SDS011;62991;50.040;18.400;2024-03-25T06:30:28;4.28;;;1.98;;
74510;SDS011;62991;50.040;18.400;2024-03-25T06:33:47;7.53;;;3.15;;
74510;SDS011;62991;50.040;18.400;2024-03-25T06:37:06;7.43;;;3.00;;
74510;SDS011;62991;50.040;18.400;2024-03-25T06:40:08;7.97;;;2.25;;
74510;SDS011;62991;50.040;18.400;2024-03-25T06:43:10;4.97;;;2.80;;
74510;SDS011;62991;50.040;18.400;2024-03-25T06:46:10;7.90;;;2.65;;
74510;SDS011;62991;50.040;18.400;2024-03-25T06:49:11;5.05;;;2.55;;
74510;SDS011;62991;50.040;18.400;2024-03-25T06:52:12;5.68;;;2.55;;
74510;SDS011;62991;50.040;18.400;2024-03-25T06:55:12;3.17;;;1.75;;
74510;SDS011;62991;50.040;18.400;2024-03-25T06:58:13;2.15;;;0.93;;
74510;SDS011;62991;50.040;18.400;2024-03-25T07:01:14;4.28;;;1.83;;
74510;SDS011;62991;50.040;18.400;2024-03-25T07:04:14;6.80;;;3.15;;
74510;SDS011;62991;50.040;18.400;2024-03-25T07:07:15;8.70;;;3.42;;
74510;SDS011;62991;50.040;18.400;2024-03-25T07:10:16;8.93;;;2.78;;
74510;SDS011;62991;50.040;18.400;2024-03-25T07:13:17;20.00;;;6.72;;
74510;SDS011;62991;50.040;18.400;2024-03-25T07:16:17;9.90;;;3.30;;
74510;SDS011;62991;50.040;18.400;2024-03-25T07:19:18;30.90;;;9.48;;
74510;SDS011;62991;50.040;18.400;2024-03-25T07:22:19;7.80;;;3.80;;
74510;SDS011;62991;50.040;18.400;2024-03-25T07:25:19;5.13;;;2.72;;
74510;SDS011;62991;50.040;18.400;2024-03-25T07:28:20;122.70;;;63.45;;
74510;SDS011;62991;50.040;18.400;2024-03-25T07:31:21;73.07;;;35.65;;
74510;SDS011;62991;50.040;18.400;2024-03-25T07:34:21;20.98;;;11.57;;
74510;SDS011;62991;50.040;18.400;2024-03-25T07:37:22;24.08;;;11.85;;
74510;SDS011;62991;50.040;18.400;2024-03-25T07:40:23;13.18;;;5.32;;
74510;SDS011;62991;50.040;18.400;2024-03-25T07:43:23;30.05;;;7.80;;
74510;SDS011;62991;50.040;18.400;2024-03-25T07:46:24;15.60;;;5.15;;
74510;SDS011;62991;50.040;18.400;2024-03-25T07:49:25;18.42;;;6.00;;
74510;SDS011;62991;50.040;18.400;2024-03-25T07:52:25;8.18;;;2.88;;
74510;SDS011;62991;50.040;18.400;2024-03-25T07:55:27;6.93;;;2.90;;
74510;SDS011;62991;50.040;18.400;2024-03-25T07:58:27;4.10;;;1.95;;
74510;SDS011;62991;50.040;18.400;2024-03-25T08:01:28;1.92;;;1.02;;
74510;SDS011;62991;50.040;18.400;2024-03-25T08:04:29;3.72;;;1.70;;
74510;SDS011;62991;50.040;18.400;2024-03-25T08:07:30;2.63;;;1.27;;
74510;SDS011;62991;50.040;18.400;2024-03-25T08:10:30;2.70;;;1.45;;
74510;SDS011;62991;50.040;18.400;2024-03-25T08:13:31;0.73;;;0.60;;
74510;SDS011;62991;50.040;18.400;2024-03-25T08:16:32;3.30;;;0.75;;
74510;SDS011;62991;50.040;18.400;2024-03-25T08:19:32;1.38;;;0.82;;
74510;SDS011;62991;50.040;18.400;2024-03-25T08:22:33;4.00;;;0.80;;
74510;SDS011;62991;50.040;18.400;2024-03-25T08:25:34;0.28;;;0.25;;
74510;SDS011;62991;50.040;18.400;2024-03-25T08:28:34;1.40;;;0.85;;
74510;SDS011;62991;50.040;18.400;2024-03-25T08:31:35;1.95;;;0.75;;
74510;SDS011;62991;50.040;18.400;2024-03-25T08:34:36;3.88;;;1.20;;
74510;SDS011;62991;50.040;18.400;2024-03-25T08:37:36;1.48;;;0.65;;
74510;SDS011;62991;50.040;18.400;2024-03-25T08:40:37;0.28;;;0.28;;
74510;SDS011;62991;50.040;18.400;2024-03-25T08:43:37;0.75;;;0.75;;
74510;SDS011;62991;50.040;18.400;2024-03-25T08:46:38;2.40;;;1.40;;
74510;SDS011;62991;50.040;18.400;2024-03-25T08:49:39;0.85;;;0.13;;
74510;SDS011;62991;50.040;18.400;2024-03-25T08:52:39;1.88;;;0.35;;
74510;SDS011;62991;50.040;18.400;2024-03-25T08:55:44;0.90;;;0.90;;
74510;SDS011;62991;50.040;18.400;2024-03-25T08:58:45;3.10;;;1.00;;
74510;SDS011;62991;50.040;18.400;2024-03-25T09:01:46;2.50;;;1.15;;
74510;SDS011;62991;50.040;18.400;2024-03-25T09:04:47;1.15;;;0.88;;
74510;SDS011;62991;50.040;18.400;2024-03-25T09:07:51;0.65;;;0.17;;
74510;SDS011;62991;50.040;18.400;2024-03-25T09:10:52;2.35;;;1.15;;
74510;SDS011;62991;50.040;18.400;2024-03-25T09:14:07;0.63;;;0.52;;
74510;SDS011;62991;50.040;18.400;2024-03-25T09:17:09;2.00;;;1.13;;
74510;SDS011;62991;50.040;18.400;2024-03-25T09:20:09;5.93;;;1.83;;
74510;SDS011;62991;50.040;18.400;2024-03-25T09:23:16;3.58;;;1.42;;
74510;SDS011;62991;50.040;18.400;2024-03-25T09:26:17;5.93;;;1.67;;
74510;SDS011;62991;50.040;18.400;2024-03-25T09:29:17;5.13;;;2.28;;
74510;SDS011;62991;50.040;18.400;2024-03-25T09:32:18;1.02;;;0.82;;
74510;SDS011;62991;50.040;18.400;2024-03-25T09:35:20;7.90;;;3.50;;
74510;SDS011;62991;50.040;18.400;2024-03-25T09:38:21;14.18;;;4.15;;
74510;SDS011;62991;50.040;18.400;2024-03-25T09:41:22;8.90;;;2.95;;
74510;SDS011;62991;50.040;18.400;2024-03-25T09:44:24;8.38;;;3.05;;
74510;SDS011;62991;50.040;18.400;2024-03-25T09:47:25;7.97;;;3.38;;
74510;SDS011;62991;50.040;18.400;2024-03-25T09:50:26;12.13;;;3.80;;
74510;SDS011;62991;50.040;18.400;2024-03-25T09:53:27;7.40;;;3.15;;
74510;SDS011;62991;50.040;18.400;2024-03-25T09:56:27;12.48;;;3.78;;
74510;SDS011;62991;50.040;18.400;2024-03-25T09:59:28;11.23;;;4.35;;
74510;SDS011;62991;50.040;18.400;2024-03-25T10:02:29;2.22;;;1.38;;
74510;SDS011;62991;50.040;18.400;2024-03-25T10:05:32;13.60;;;4.43;;
74510;SDS011;62991;50.040;18.400;2024-03-25T10:08:33;16.15;;;8.43;;
74510;SDS011;62991;50.040;18.400;2024-03-25T10:11:34;32.45;;;10.77;;
74510;SDS011;62991;50.040;18.400;2024-03-25T10:14:35;23.30;;;9.32;;
74510;SDS011;62991;50.040;18.400;2024-03-25T10:17:38;12.77;;;6.32;;
74510;SDS011;62991;50.040;18.400;2024-03-25T10:20:47;6.60;;;3.20;;
74510;SDS011;62991;50.040;18.400;2024-03-25T10:23:50;1.80;;;0.95;;
74510;SDS011;62991;50.040;18.400;2024-03-25T10:26:53;2.10;;;1.25;;
74510;SDS011;62991;50.040;18.400;2024-03-25T10:29:57;1.83;;;1.00;;
74510;SDS011;62991;50.040;18.400;2024-03-25T10:35:58;2.20;;;0.95;;
74510;SDS011;62991;50.040;18.400;2024-03-25T10:39:01;2.95;;;1.25;;
74510;SDS011;62991;50.040;18.400;2024-03-25T10:42:06;3.85;;;2.00;;
74510;SDS011;62991;50.040;18.400;2024-03-25T10:45:10;2.92;;;1.40;;
74510;SDS011;62991;50.040;18.400;2024-03-25T10:48:14;1.80;;;1.45;;
74510;SDS011;62991;50.040;18.400;2024-03-25T10:51:18;1.85;;;0.73;;
74510;SDS011;62991;50.040;18.400;2024-03-25T10:54:22;2.60;;;1.13;;
74510;SDS011;62991;50.040;18.400;2024-03-25T10:57:24;2.50;;;0.60;;
74510;SDS011;62991;50.040;18.400;2024-03-25T11:00:26;2.17;;;1.13;;
74510;SDS011;62991;50.040;18.400;2024-03-25T11:03:27;2.67;;;1.20;;
74510;SDS011;62991;50.040;18.400;2024-03-25T11:06:29;1.40;;;0.70;;
74510;SDS011;62991;50.040;18.400;2024-03-25T11:09:29;1.70;;;0.95;;
74510;SDS011;62991;50.040;18.400;2024-03-25T11:12:31;1.15;;;0.43;;
74510;SDS011;62991;50.040;18.400;2024-03-25T11:15:38;1.40;;;0.52;;
74510;SDS011;62991;50.040;18.400;2024-03-25T11:18:50;0.93;;;0.57;;
74510;SDS011;62991;50.040;18.400;2024-03-25T11:21:51;2.15;;;0.70;;
74510;SDS011;62991;50.040;18.400;2024-03-25T11:24:54;0.38;;;0.28;;
74510;SDS011;62991;50.040;18.400;2024-03-25T11:27:55;1.52;;;0.60;;
74510;SDS011;62991;50.040;18.400;2024-03-25T11:30:56;3.05;;;1.00;;
74510;SDS011;62991;50.040;18.400;2024-03-25T11:33:56;2.83;;;0.80;;
74510;SDS011;62991;50.040;18.400;2024-03-25T11:36:57;0.90;;;0.50;;
74510;SDS011;62991;50.040;18.400;2024-03-25T11:40:02;0.45;;;0.40;;
74510;SDS011;62991;50.040;18.400;2024-03-25T11:43:04;1.02;;;0.57;;
74510;SDS011;62991;50.040;18.400;2024-03-25T11:46:05;2.78;;;1.33;;
74510;SDS011;62991;50.040;18.400;2024-03-25T11:49:06;2.22;;;0.82;;
74510;SDS011;62991;50.040;18.400;2024-03-25T11:52:09;2.67;;;1.20;;
74510;SDS011;62991;50.040;18.400;2024-03-25T11:55:10;1.17;;;0.70;;
74510;SDS011;62991;50.040;18.400;2024-03-25T11:58:17;1.17;;;0.73;;
74510;SDS011;62991;50.040;18.400;2024-03-25T12:01:17;1.90;;;0.55;;
74510;SDS011;62991;50.040;18.400;2024-03-25T12:04:18;6.95;;;1.88;;
74510;SDS011;62991;50.040;18.400;2024-03-25T12:07:19;0.80;;;0.47;;
74510;SDS011;62991;50.040;18.400;2024-03-25T12:10:20;1.25;;;0.77;;
74510;SDS011;62991;50.040;18.400;2024-03-25T12:13:57;3.08;;;1.33;;
74510;SDS011;62991;50.040;18.400;2024-03-25T12:16:59;3.80;;;1.10;;
74510;SDS011;62991;50.040;18.400;2024-03-25T12:20:06;1.13;;;0.80;;
74510;SDS011;62991;50.040;18.400;2024-03-25T12:23:08;1.45;;;0.88;;
74510;SDS011;62991;50.040;18.400;2024-03-25T12:26:08;2.05;;;0.82;;
74510;SDS011;62991;50.040;18.400;2024-03-25T12:29:09;0.85;;;0.40;;
74510;SDS011;62991;50.040;18.400;2024-03-25T12:32:10;11.35;;;0.93;;
74510;SDS011;62991;50.040;18.400;2024-03-25T12:38:35;2.35;;;0.90;;
74510;SDS011;62991;50.040;18.400;2024-03-25T12:41:36;3.60;;;1.17;;
74510;SDS011;62991;50.040;18.400;2024-03-25T12:44:37;5.40;;;1.23;;
74510;SDS011;62991;50.040;18.400;2024-03-25T12:47:37;2.67;;;0.80;;
74510;SDS011;62991;50.040;18.400;2024-03-25T12:50:38;1.08;;;0.80;;
74510;SDS011;62991;50.040;18.400;2024-03-25T12:53:39;3.28;;;1.13;;
74510;SDS011;62991;50.040;18.400;2024-03-25T12:56:40;7.13;;;3.45;;
74510;SDS011;62991;50.040;18.400;2024-03-25T12:59:43;4.03;;;1.40;;
74510;SDS011;62991;50.040;18.400;2024-03-25T13:02:43;3.30;;;0.65;;
74510;SDS011;62991;50.040;18.400;2024-03-25T13:05:44;2.17;;;0.90;;
74510;SDS011;62991;50.040;18.400;2024-03-25T13:08:45;9.25;;;1.33;;
74510;SDS011;62991;50.040;18.400;2024-03-25T13:11:46;2.20;;;1.00;;
74510;SDS011;62991;50.040;18.400;2024-03-25T13:14:47;3.58;;;0.75;;
74510;SDS011;62991;50.040;18.400;2024-03-25T13:17:47;3.17;;;1.17;;
74510;SDS011;62991;50.040;18.400;2024-03-25T13:20:48;1.88;;;1.05;;
74510;SDS011;62991;50.040;18.400;2024-03-25T13:23:49;3.38;;;1.02;;
74510;SDS011;62991;50.040;18.400;2024-03-25T13:26:50;1.13;;;0.63;;
74510;SDS011;62991;50.040;18.400;2024-03-25T13:29:50;4.65;;;1.42;;
74510;SDS011;62991;50.040;18.400;2024-03-25T13:32:52;1.40;;;0.82;;
74510;SDS011;62991;50.040;18.400;2024-03-25T13:35:53;2.70;;;1.30;;
74510;SDS011;62991;50.040;18.400;2024-03-25T13:38:54;3.83;;;1.60;;
74510;SDS011;62991;50.040;18.400;2024-03-25T13:41:54;2.15;;;0.90;;
74510;SDS011;62991;50.040;18.400;2024-03-25T13:44:55;2.08;;;0.93;;
74510;SDS011;62991;50.040;18.400;2024-03-25T13:47:56;1.40;;;0.90;;
74510;SDS011;62991;50.040;18.400;2024-03-25T13:50:56;1.27;;;1.15;;
74510;SDS011;62991;50.040;18.400;2024-03-25T13:53:57;5.78;;;2.22;;
74510;SDS011;62991;50.040;18.400;2024-03-25T13:56:58;1.20;;;0.75;;
74510;SDS011;62991;50.040;18.400;2024-03-25T13:59:59;1.95;;;1.05;;
74510;SDS011;62991;50.040;18.400;2024-03-25T14:03:00;2.15;;;1.00;;
74510;SDS011;62991;50.040;18.400;2024-03-25T14:06:00;1.70;;;0.93;;
74510;SDS011;62991;50.040;18.400;2024-03-25T14:09:01;1.80;;;1.13;;
74510;SDS011;62991;50.040;18.400;2024-03-25T14:12:05;1.08;;;0.52;;
74510;SDS011;62991;50.040;18.400;2024-03-25T14:15:06;0.90;;;0.70;;
74510;SDS011;62991;50.040;18.400;2024-03-25T14:18:07;1.13;;;0.55;;
74510;SDS011;62991;50.040;18.400;2024-03-25T14:21:11;1.80;;;1.10;;
74510;SDS011;62991;50.040;18.400;2024-03-25T14:24:11;3.50;;;1.48;;
74510;SDS011;62991;50.040;18.400;2024-03-25T14:27:12;1.15;;;0.73;;
74510;SDS011;62991;50.040;18.400;2024-03-25T14:30:14;3.30;;;1.50;;
74510;SDS011;62991;50.040;18.400;2024-03-25T14:33:15;3.00;;;1.40;;
74510;SDS011;62991;50.040;18.400;2024-03-25T14:36:16;2.67;;;1.27;;
74510;SDS011;62991;50.040;18.400;2024-03-25T14:39:16;1.80;;;0.88;;
74510;SDS011;62991;50.040;18.400;2024-03-25T14:42:17;1.42;;;0.82;;
74510;SDS011;62991;50.040;18.400;2024-03-25T14:45:18;3.33;;;1.48;;
74510;SDS011;62991;50.040;18.400;2024-03-25T14:48:18;3.03;;;1.02;;
74510;SDS011;62991;50.040;18.400;2024-03-25T14:51:19;2.47;;;1.00;;
74510;SDS011;62991;50.040;18.400;2024-03-25T14:54:20;2.25;;;1.23;;
74510;SDS011;62991;50.040;18.400;2024-03-25T14:57:20;24.73;;;7.63;;
74510;SDS011;62991;50.040;18.400;2024-03-25T15:00:21;7.15;;;2.53;;
74510;SDS011;62991;50.040;18.400;2024-03-25T15:03:24;5.18;;;1.90;;
74510;SDS011;62991;50.040;18.400;2024-03-25T15:06:24;6.38;;;2.47;;
74510;SDS011;62991;50.040;18.400;2024-03-25T15:09:25;9.85;;;3.75;;
74510;SDS011;62991;50.040;18.400;2024-03-25T15:12:26;9.35;;;3.50;;
74510;SDS011;62991;50.040;18.400;2024-03-25T15:15:27;6.45;;;2.58;;
74510;SDS011;62991;50.040;18.400;2024-03-25T15:18:28;6.50;;;3.03;;
74510;SDS011;62991;50.040;18.400;2024-03-25T15:21:28;5.25;;;2.33;;
74510;SDS011;62991;50.040;18.400;2024-03-25T15:24:29;8.30;;;2.90;;
74510;SDS011;62991;50.040;18.400;2024-03-25T15:27:30;4.43;;;2.20;;
74510;SDS011;62991;50.040;18.400;2024-03-25T15:30:30;5.05;;;2.40;;
74510;SDS011;62991;50.040;18.400;2024-03-25T15:33:31;2.83;;;1.23;;
74510;SDS011;62991;50.040;18.400;2024-03-25T15:36:33;4.90;;;1.80;;
74510;SDS011;62991;50.040;18.400;2024-03-25T15:39:34;15.95;;;3.53;;
74510;SDS011;62991;50.040;18.400;2024-03-25T15:42:34;7.35;;;2.72;;
74510;SDS011;62991;50.040;18.400;2024-03-25T15:45:35;7.90;;;2.67;;
74510;SDS011;62991;50.040;18.400;2024-03-25T15:48:36;9.95;;;3.47;;
74510;SDS011;62991;50.040;18.400;2024-03-25T15:51:36;4.05;;;1.75;;
74510;SDS011;62991;50.040;18.400;2024-03-25T15:54:37;4.53;;;1.58;;
74510;SDS011;62991;50.040;18.400;2024-03-25T15:57:38;4.72;;;1.90;;
74510;SDS011;62991;50.040;18.400;2024-03-25T16:00:38;2.97;;;1.67;;
74510;SDS011;62991;50.040;18.400;2024-03-25T16:03:39;4.57;;;2.15;;
74510;SDS011;62991;50.040;18.400;2024-03-25T16:06:40;5.90;;;1.85;;
74510;SDS011;62991;50.040;18.400;2024-03-25T16:09:40;5.78;;;2.30;;
74510;SDS011;62991;50.040;18.400;2024-03-25T16:12:41;6.85;;;2.30;;
74510;SDS011;62991;50.040;18.400;2024-03-25T16:15:42;9.48;;;2.22;;
74510;SDS011;62991;50.040;18.400;2024-03-25T16:18:42;4.70;;;1.75;;
74510;SDS011;62991;50.040;18.400;2024-03-25T16:21:43;5.90;;;2.50;;
74510;SDS011;62991;50.040;18.400;2024-03-25T16:24:43;8.43;;;2.53;;
74510;SDS011;62991;50.040;18.400;2024-03-25T16:27:44;4.63;;;2.10;;
74510;SDS011;62991;50.040;18.400;2024-03-25T16:30:45;5.60;;;1.92;;
74510;SDS011;62991;50.040;18.400;2024-03-25T16:33:45;7.70;;;2.42;;
74510;SDS011;62991;50.040;18.400;2024-03-25T16:36:48;17.33;;;5.72;;
74510;SDS011;62991;50.040;18.400;2024-03-25T16:39:48;13.02;;;4.13;;
74510;SDS011;62991;50.040;18.400;2024-03-25T16:42:49;6.53;;;3.00;;
74510;SDS011;62991;50.040;18.400;2024-03-25T16:45:50;10.73;;;4.13;;
74510;SDS011;62991;50.040;18.400;2024-03-25T16:48:51;16.45;;;5.55;;
74510;SDS011;62991;50.040;18.400;2024-03-25T16:51:52;15.20;;;6.07;;
74510;SDS011;62991;50.040;18.400;2024-03-25T16:54:52;10.95;;;4.32;;
74510;SDS011;62991;50.040;18.400;2024-03-25T16:57:53;11.00;;;4.40;;
74510;SDS011;62991;50.040;18.400;2024-03-25T17:00:53;9.25;;;4.05;;
74510;SDS011;62991;50.040;18.400;2024-03-25T17:03:54;10.13;;;4.25;;
74510;SDS011;62991;50.040;18.400;2024-03-25T17:06:55;11.05;;;3.80;;
74510;SDS011;62991;50.040;18.400;2024-03-25T17:09:56;9.30;;;3.75;;
74510;SDS011;62991;50.040;18.400;2024-03-25T17:12:56;8.10;;;4.00;;
74510;SDS011;62991;50.040;18.400;2024-03-25T17:15:57;11.07;;;4.30;;
74510;SDS011;62991;50.040;18.400;2024-03-25T17:18:58;13.30;;;5.28;;
74510;SDS011;62991;50.040;18.400;2024-03-25T17:21:59;23.90;;;9.45;;
74510;SDS011;62991;50.040;18.400;2024-03-25T17:25:00;33.05;;;11.95;;
74510;SDS011;62991;50.040;18.400;2024-03-25T17:28:00;38.33;;;13.27;;
74510;SDS011;62991;50.040;18.400;2024-03-25T17:31:05;69.95;;;21.88;;
74510;SDS011;62991;50.040;18.400;2024-03-25T17:34:07;89.50;;;25.25;;
74510;SDS011;62991;50.040;18.400;2024-03-25T17:37:07;102.05;;;30.65;;
74510;SDS011;62991;50.040;18.400;2024-03-25T17:40:08;51.05;;;18.83;;
74510;SDS011;62991;50.040;18.400;2024-03-25T17:43:10;48.10;;;17.65;;
74510;SDS011;62991;50.040;18.400;2024-03-25T17:46:10;65.95;;;21.80;;
74510;SDS011;62991;50.040;18.400;2024-03-25T17:49:11;47.85;;;16.45;;
74510;SDS011;62991;50.040;18.400;2024-03-25T17:52:12;59.90;;;18.33;;
74510;SDS011;62991;50.040;18.400;2024-03-25T17:55:12;63.33;;;18.95;;
74510;SDS011;62991;50.040;18.400;2024-03-25T17:58:14;77.05;;;23.70;;
74510;SDS011;62991;50.040;18.400;2024-03-25T18:01:14;127.40;;;37.15;;